Etusivu
METAR-TAF:

METAR-TAF

Lentoasemat :

Carroll, Iowa, Yhdysvallat

Leveyspiiri: 42-03N, Pituuspiiri: 094-47W, korkeus merenpinnasta: 375 m

Tämänhetkinen sää

Tämä raportti tehtiin 21 minuuttia sitten, kello 09.55 UTC
Tuuli 5 kn etelästä/lounaasta
Lämpötila 2°C
Kosteus 100%
Ilmanpaine 1011 hPa
Näkyvyys: 6.4 km
Muutamia pilviä 2000 ft:n korkeudessa
Hajonneita pilviä 2700 ft:n korkeudessa
Pilvistä 3300 ft:n korkeudessa
heikkoa sadetta

METAR: KCIN 170955Z AUTO 20005KT 4SM -RA FEW020 BKN027 OVC033 02/02 A2986 RMK AO2 P0004

Aika: 04:16 (10:16 UTC)


TAF: puuttuu

Säähavainnot ja -ennusteet yli 4000 lentoasemalta (METAR- ja TAF-raportit).

Käytössä olevat sääasemat on merkitty karttaan keltaisilla ja punaisilla pisteillä.

Aseta hiiri pisteen päälle nähdäksesi sääaseman nimen.

Klikkaa sitten nähdäksesi säähavainnot ja -ennusteet.

Kartan vaihtaminen: klikkaa mustalla rastilla varustettuja vihreitä pisteitä, niin voit zoomata sisään; viivalla varustettua vihreää pistettä, niin voit zoomata ulos tai vihreitä nuolia, niin pääset viereisille kartoille.


METAR-TAF: